UAE500 VOBL-OMDB
Flight info
| Callsign | UAE500 |
|---|---|
| Flight time | N/A |
| Altitude | 38000 |
| Route | OPAMO8A OPAMO P574 BOLIS/N0484F400 P574 PAROK Q899 ITURA M762 MIVEK P574 IMPED |
| Aircraft | A388/J-SADE2E3FGHIJ3J4J5M1RWXY/LB1D1 |
Departure
| Time | 2026-05-08 19:02 |
|---|---|
| Airport | Kempegowda International Airport Bengaluru (VOBL) |
Arrival
| Time | N/A |
|---|---|
| Airport | Dubai International Airport (OMDB) |
| Time | Latitude | Longitude | Altitude | Speed | Heading |
|---|---|---|---|---|---|
| 2026-05-08 19:01 | 13.21728 | 77.78663 | 6806 ft | 168 kts | 46° |
| 2026-05-08 19:02 | 13.22751 | 77.79297 | 7215 ft | 175 kts | 25° |
| 2026-05-08 19:02 | 13.23925 | 77.79663 | 7605 ft | 180 kts | 20° |
| 2026-05-08 19:02 | 13.25084 | 77.80149 | 7927 ft | 183 kts | 38° |
| 2026-05-08 19:02 | 13.25979 | 77.81085 | 8256 ft | 184 kts | 52° |
| 2026-05-08 19:03 | 13.26778 | 77.82113 | 8534 ft | 189 kts | 51° |
| 2026-05-08 19:03 | 13.27792 | 77.82980 | 8861 ft | 192 kts | 30° |
| 2026-05-08 19:03 | 13.28971 | 77.83391 | 9780 ft | 161 kts | 12° |
| 2026-05-08 19:03 | 13.30039 | 77.83385 | 10509 ft | 157 kts | 356° |
| 2026-05-08 19:04 | 13.31149 | 77.83100 | 10925 ft | 165 kts | 354° |
| 2026-05-08 19:04 | 13.32362 | 77.82889 | 11225 ft | 189 kts | 353° |
| 2026-05-08 19:04 | 13.33739 | 77.82504 | 11165 ft | 227 kts | 343° |
| 2026-05-08 19:04 | 13.35274 | 77.81760 | 10930 ft | 259 kts | 336° |
| 2026-05-08 19:05 | 13.36964 | 77.80824 | 10957 ft | 291 kts | 334° |
| 2026-05-08 19:05 | 13.38831 | 77.79743 | 10954 ft | 320 kts | 333° |
| 2026-05-08 19:05 | 13.40810 | 77.78582 | 10934 ft | 339 kts | 333° |
| 2026-05-08 19:05 | 13.42943 | 77.77332 | 10947 ft | 363 kts | 333° |
| 2026-05-08 19:06 | 13.45171 | 77.76026 | 11444 ft | 369 kts | 333° |
| 2026-05-08 19:06 | 13.47362 | 77.74737 | 12603 ft | 355 kts | 333° |
| 2026-05-08 19:06 | 13.49516 | 77.73476 | 13266 ft | 359 kts | 333° |
| 2026-05-08 19:06 | 13.51676 | 77.72216 | 13853 ft | 362 kts | 333° |
| 2026-05-08 19:07 | 13.53888 | 77.70925 | 14426 ft | 365 kts | 332° |
| 2026-05-08 19:07 | 13.56099 | 77.69638 | 14935 ft | 369 kts | 331° |
| 2026-05-08 19:07 | 13.58336 | 77.68331 | 15518 ft | 371 kts | 331° |
| 2026-05-08 19:07 | 13.60597 | 77.67009 | 16079 ft | 374 kts | 330° |
| 2026-05-08 19:08 | 13.62859 | 77.65686 | 16561 ft | 379 kts | 330° |
| 2026-05-08 19:08 | 13.65156 | 77.64343 | 17118 ft | 381 kts | 330° |
| 2026-05-08 19:08 | 13.67482 | 77.62983 | 17625 ft | 385 kts | 330° |
| 2026-05-08 19:08 | 13.69811 | 77.61621 | 18141 ft | 389 kts | 329° |
| 2026-05-08 19:09 | 13.72180 | 77.60235 | 18566 ft | 392 kts | 329° |
| 2026-05-08 19:09 | 13.74557 | 77.58845 | 19041 ft | 393 kts | 329° |
| 2026-05-08 19:09 | 13.76731 | 77.57573 | 19477 ft | 394 kts | 330° |
| 2026-05-08 19:09 | 13.79147 | 77.56158 | 19858 ft | 398 kts | 330° |
| 2026-05-08 19:10 | 13.81534 | 77.54762 | 20354 ft | 398 kts | 329° |
| 2026-05-08 19:10 | 13.83968 | 77.53336 | 20722 ft | 402 kts | 330° |
| 2026-05-08 19:10 | 13.86400 | 77.51912 | 21126 ft | 404 kts | 329° |
| 2026-05-08 19:10 | 13.88831 | 77.50489 | 21620 ft | 404 kts | 330° |
| 2026-05-08 19:11 | 13.91301 | 77.49041 | 21950 ft | 409 kts | 330° |
| 2026-05-08 19:11 | 13.93773 | 77.47591 | 22313 ft | 412 kts | 330° |
| 2026-05-08 19:11 | 13.96253 | 77.46138 | 22799 ft | 412 kts | 330° |
| 2026-05-08 19:11 | 13.98776 | 77.44658 | 23079 ft | 417 kts | 330° |
| 2026-05-08 19:12 | 14.01296 | 77.43180 | 23544 ft | 417 kts | 330° |
| 2026-05-08 19:12 | 14.03821 | 77.41699 | 23774 ft | 421 kts | 329° |
| 2026-05-08 19:12 | 14.06376 | 77.40200 | 24147 ft | 422 kts | 330° |
| 2026-05-08 19:12 | 14.08932 | 77.38700 | 24427 ft | 425 kts | 329° |
| 2026-05-08 19:13 | 14.11493 | 77.37197 | 24800 ft | 425 kts | 329° |
| 2026-05-08 19:13 | 14.13208 | 77.36190 | 25008 ft | 427 kts | 329° |
| 2026-05-08 19:13 | 14.15812 | 77.34659 | 25219 ft | 432 kts | 330° |
| 2026-05-08 19:13 | 14.18422 | 77.33126 | 25543 ft | 433 kts | 329° |
| 2026-05-08 19:14 | 14.21049 | 77.31581 | 25877 ft | 435 kts | 329° |
| 2026-05-08 19:14 | 14.23685 | 77.30031 | 26091 ft | 440 kts | 329° |
| 2026-05-08 19:14 | 14.27236 | 77.27945 | 26559 ft | 442 kts | 329° |
| 2026-05-08 19:14 | 14.29043 | 77.26883 | 26804 ft | 443 kts | 329° |
| 2026-05-08 19:15 | 14.31714 | 77.25310 | 27075 ft | 446 kts | 329° |
| 2026-05-08 19:15 | 14.32582 | 77.24800 | 27193 ft | 447 kts | 329° |
| 2026-05-08 19:15 | 14.35041 | 77.23352 | 27531 ft | 448 kts | 329° |
| 2026-05-08 19:16 | 14.37740 | 77.21763 | 27938 ft | 449 kts | 329° |
| 2026-05-08 19:16 | 14.40494 | 77.20139 | 28240 ft | 454 kts | 329° |
| 2026-05-08 19:16 | 14.43238 | 77.18523 | 28628 ft | 456 kts | 329° |
| 2026-05-08 19:16 | 14.45991 | 77.16901 | 28972 ft | 459 kts | 329° |
| 2026-05-08 19:17 | 14.48773 | 77.15261 | 29325 ft | 463 kts | 329° |
| 2026-05-08 19:17 | 14.51571 | 77.13613 | 29735 ft | 466 kts | 329° |
| 2026-05-08 19:17 | 14.54415 | 77.11936 | 30116 ft | 469 kts | 329° |
| 2026-05-08 19:17 | 14.57109 | 77.10072 | 30450 ft | 471 kts | 319° |
| 2026-05-08 19:18 | 14.59465 | 77.07692 | 30791 ft | 472 kts | 309° |
| 2026-05-08 19:18 | 14.61363 | 77.04941 | 31164 ft | 473 kts | 299° |
| 2026-05-08 19:18 | 14.62877 | 77.01950 | 31516 ft | 475 kts | 295° |
| 2026-05-08 19:18 | 14.64340 | 76.99012 | 31848 ft | 479 kts | 296° |
| 2026-05-08 19:19 | 14.65851 | 76.96007 | 32184 ft | 482 kts | 296° |
| 2026-05-08 19:19 | 14.67334 | 76.93066 | 32557 ft | 485 kts | 296° |
| 2026-05-08 19:19 | 14.68893 | 76.89973 | 32912 ft | 488 kts | 296° |
| 2026-05-08 19:19 | 14.70469 | 76.86837 | 33230 ft | 491 kts | 296° |
| 2026-05-08 19:20 | 14.72034 | 76.83724 | 33599 ft | 494 kts | 295° |
| 2026-05-08 19:20 | 14.73090 | 76.81618 | 33826 ft | 496 kts | 295° |
| 2026-05-08 19:20 | 14.75227 | 76.77357 | 34278 ft | 499 kts | 296° |
| 2026-05-08 19:20 | 14.76821 | 76.74180 | 34679 ft | 500 kts | 296° |
| 2026-05-08 19:21 | 14.78363 | 76.71103 | 35091 ft | 500 kts | 296° |
| 2026-05-08 19:21 | 14.79937 | 76.67960 | 35565 ft | 498 kts | 296° |
| 2026-05-08 19:21 | 14.81541 | 76.64761 | 36158 ft | 494 kts | 296° |
| 2026-05-08 19:21 | 14.83074 | 76.61698 | 36652 ft | 493 kts | 296° |
| 2026-05-08 19:22 | 14.84631 | 76.58586 | 37189 ft | 490 kts | 296° |
| 2026-05-08 19:22 | 14.86184 | 76.55481 | 37768 ft | 486 kts | 296° |
| 2026-05-08 19:22 | 14.87712 | 76.52422 | 38192 ft | 486 kts | 297° |
| 2026-05-08 19:22 | 14.89254 | 76.49336 | 38580 ft | 485 kts | 297° |
| 2026-05-08 19:23 | 14.90809 | 76.46223 | 38966 ft | 484 kts | 297° |
| 2026-05-08 19:23 | 14.92346 | 76.43146 | 39391 ft | 482 kts | 296° |
| 2026-05-08 19:23 | 14.93889 | 76.40054 | 39688 ft | 482 kts | 296° |
| 2026-05-08 19:23 | 14.95415 | 76.36997 | 39899 ft | 485 kts | 296° |
| 2026-05-08 19:24 | 14.96982 | 76.33854 | 39867 ft | 488 kts | 296° |
| 2026-05-08 19:24 | 15.00058 | 76.27685 | 39871 ft | 480 kts | 296° |
| 2026-05-08 19:25 | 15.03137 | 76.21500 | 39866 ft | 484 kts | 296° |
| 2026-05-08 19:25 | 15.06221 | 76.15302 | 39862 ft | 485 kts | 296° |
| 2026-05-08 19:26 | 15.09300 | 76.09111 | 39861 ft | 483 kts | 296° |
| 2026-05-08 19:26 | 15.12361 | 76.02949 | 39850 ft | 482 kts | 296° |
| 2026-05-08 19:27 | 15.15437 | 75.96821 | 39839 ft | 480 kts | 297° |
| 2026-05-08 19:27 | 15.18654 | 75.90748 | 39808 ft | 479 kts | 298° |
| 2026-05-08 19:28 | 15.21811 | 75.84780 | 39834 ft | 477 kts | 297° |
| 2026-05-08 19:28 | 15.24957 | 75.78778 | 39825 ft | 476 kts | 297° |
| 2026-05-08 19:29 | 15.28120 | 75.72737 | 39809 ft | 475 kts | 297° |
| 2026-05-08 19:29 | 15.31247 | 75.66762 | 39809 ft | 475 kts | 297° |
| 2026-05-08 19:30 | 15.31605 | 75.66078 | 39815 ft | 475 kts | 297° |
| 2026-05-08 19:31 | 15.33787 | 75.61907 | 39859 ft | 481 kts | 297° |
| 2026-05-08 19:31 | 15.36994 | 75.55772 | 39856 ft | 482 kts | 297° |
| 2026-05-08 19:32 | 15.40034 | 75.49961 | 39853 ft | 481 kts | 297° |
| 2026-05-08 19:32 | 15.43214 | 75.43858 | 39852 ft | 483 kts | 297° |
| 2026-05-08 19:33 | 15.46436 | 75.37674 | 39875 ft | 488 kts | 297° |
| 2026-05-08 19:33 | 15.49643 | 75.31520 | 39876 ft | 490 kts | 297° |
| 2026-05-08 19:34 | 15.50542 | 75.29795 | 39899 ft | 490 kts | 297° |
| 2026-05-08 19:35 | 15.52927 | 75.25210 | 39891 ft | 490 kts | 296° |
| 2026-05-08 19:35 | 15.56147 | 75.19019 | 39910 ft | 489 kts | 297° |
| 2026-05-08 19:36 | 15.59337 | 75.12877 | 39911 ft | 487 kts | 296° |
| 2026-05-08 19:36 | 15.62507 | 75.06757 | 39868 ft | 486 kts | 296° |
| 2026-05-08 19:37 | 15.65365 | 75.01269 | 39863 ft | 485 kts | 296° |
| 2026-05-08 19:37 | 15.66071 | 74.99905 | 39859 ft | 485 kts | 297° |